createdAt,value
2019-01-05T00:01:00.368Z,8.50
2019-01-05T00:03:57.509Z,8.60
2019-01-05T00:06:46.923Z,8.60
2019-01-05T00:09:37.439Z,8.80
2019-01-05T00:12:24.238Z,8.80
2019-01-05T00:15:17.308Z,8.80
2019-01-05T00:18:08.414Z,8.90
2019-01-05T00:21:03.373Z,8.80
2019-01-05T00:24:04.235Z,8.80
2019-01-05T00:26:55.248Z,8.80
2019-01-05T00:29:45.130Z,8.90
2019-01-05T00:32:43.999Z,8.90
2019-01-05T00:35:50.033Z,8.90
2019-01-05T00:39:02.534Z,8.80
2019-01-05T00:41:55.508Z,8.90
2019-01-05T00:44:49.423Z,8.90
2019-01-05T00:47:53.455Z,8.90
2019-01-05T00:50:46.019Z,8.70
2019-01-05T00:53:40.059Z,8.60
2019-01-05T00:56:32.918Z,8.70
2019-01-05T00:59:12.978Z,8.60
2019-01-05T01:02:13.053Z,8.70
2019-01-05T01:05:03.008Z,8.60
2019-01-05T01:08:03.340Z,8.60
2019-01-05T01:10:52.668Z,8.40
2019-01-05T01:13:50.179Z,8.30
2019-01-05T01:16:51.048Z,8.40
2019-01-05T01:19:42.200Z,8.40
2019-01-05T01:22:47.589Z,8.50
2019-01-05T01:25:41.438Z,8.50
2019-01-05T01:28:29.158Z,8.50
2019-01-05T01:31:17.078Z,8.50
2019-01-05T01:34:03.458Z,8.50
2019-01-05T01:36:53.849Z,8.60
2019-01-05T01:39:43.543Z,8.50
2019-01-05T01:42:37.095Z,8.50
2019-01-05T01:45:27.388Z,8.50
2019-01-05T01:48:20.329Z,8.50
2019-01-05T01:51:19.004Z,8.30
2019-01-05T01:54:25.858Z,8.40
2019-01-05T01:57:16.307Z,8.40
2019-01-05T02:00:24.214Z,8.40
2019-01-05T02:03:16.938Z,8.70
2019-01-05T02:06:14.873Z,8.80
2019-01-05T02:09:07.785Z,8.80
2019-01-05T02:12:03.585Z,8.90
2019-01-05T02:14:59.333Z,8.80
2019-01-05T02:18:15.490Z,8.70
2019-01-05T02:21:44.888Z,8.80
2019-01-05T02:25:00.893Z,8.90
2019-01-05T02:28:57.603Z,8.90
2019-01-05T02:32:09.915Z,8.90
2019-01-05T02:35:41.200Z,8.80
2019-01-05T02:39:16.351Z,8.80
2019-01-05T02:42:50.174Z,8.80
2019-01-05T02:46:28.912Z,8.80
2019-01-05T02:50:06.033Z,8.80
2019-01-05T02:53:37.689Z,8.70
2019-01-05T02:57:17.183Z,8.70
2019-01-05T03:01:13.328Z,8.90
2019-01-05T03:05:01.140Z,8.90
2019-01-05T03:08:44.779Z,8.70
2019-01-05T03:12:21.544Z,8.60
2019-01-05T03:15:41.676Z,8.60
2019-01-05T03:18:59.881Z,8.40
2019-01-05T03:22:45.669Z,8.50
2019-01-05T03:26:24.481Z,8.50
2019-01-05T03:29:45.049Z,8.30
2019-01-05T03:33:09.790Z,8.20
2019-01-05T03:36:44.580Z,8.20
2019-01-05T03:40:26.944Z,8.10
2019-01-05T03:43:49.799Z,8.10
2019-01-05T03:47:35.454Z,8.00
2019-01-05T03:51:17.423Z,8.10
2019-01-05T03:54:43.288Z,8.10
2019-01-05T03:58:17.199Z,8.00
2019-01-05T04:01:33.594Z,8.00
2019-01-05T04:05:00.151Z,7.90
2019-01-05T04:08:35.035Z,7.90
2019-01-05T04:12:25.324Z,7.90
2019-01-05T04:16:09.468Z,7.80
2019-01-05T04:19:45.148Z,7.80
2019-01-05T04:23:11.313Z,7.70
2019-01-05T04:26:56.413Z,7.70
2019-01-05T04:30:19.043Z,7.60
2019-01-05T04:34:08.438Z,7.50
2019-01-05T04:37:40.289Z,7.50
2019-01-05T04:41:24.028Z,7.40
2019-01-05T04:45:20.819Z,7.30
2019-01-05T04:48:51.385Z,7.30
2019-01-05T04:52:39.133Z,7.30
2019-01-05T04:56:15.114Z,7.30
2019-01-05T04:59:50.995Z,7.40
2019-01-05T05:03:25.870Z,7.50
2019-01-05T05:06:46.769Z,7.40
2019-01-05T05:10:19.464Z,7.50
2019-01-05T05:13:47.118Z,7.50
2019-01-05T05:17:17.483Z,7.50
2019-01-05T05:21:00.489Z,7.50
2019-01-05T05:24:44.213Z,7.50
2019-01-05T05:28:14.159Z,7.40
2019-01-05T05:31:48.058Z,7.40
2019-01-05T05:35:13.414Z,7.40
2019-01-05T05:39:07.529Z,7.50
2019-01-05T05:42:37.273Z,7.50
2019-01-05T05:46:11.643Z,7.50
2019-01-05T05:49:43.794Z,7.60
2019-01-05T05:53:17.480Z,7.50
2019-01-05T05:57:01.339Z,7.50
2019-01-05T06:01:03.254Z,7.50
2019-01-05T06:04:26.986Z,7.50
2019-01-05T06:08:09.694Z,7.60
2019-01-05T06:11:38.038Z,7.60
2019-01-05T06:15:08.859Z,7.70
2019-01-05T06:18:28.958Z,7.90
2019-01-05T06:22:15.086Z,8.00
2019-01-05T06:25:47.259Z,8.20
2019-01-05T06:28:58.043Z,8.20
2019-01-05T06:32:22.858Z,8.40
2019-01-05T06:35:45.278Z,8.60
2019-01-05T06:39:06.124Z,8.60
2019-01-05T06:42:47.259Z,8.70
2019-01-05T06:46:35.073Z,8.80
2019-01-05T06:50:08.378Z,8.60
2019-01-05T06:53:43.294Z,8.70
2019-01-05T06:57:22.483Z,8.80
2019-01-05T07:01:05.473Z,8.70
2019-01-05T07:04:58.563Z,8.80
2019-01-05T07:08:42.573Z,8.90
2019-01-05T07:12:24.208Z,8.80
2019-01-05T07:15:51.234Z,9.00
2019-01-05T07:19:17.403Z,9.00
2019-01-05T07:22:44.769Z,9.00
2019-01-05T07:26:20.478Z,9.20
2019-01-05T07:29:52.253Z,9.20
2019-01-05T07:33:21.476Z,9.20
2019-01-05T07:36:45.523Z,9.20
2019-01-05T07:40:43.994Z,9.20
2019-01-05T07:44:30.125Z,9.30
2019-01-05T07:48:10.183Z,9.30
2019-01-05T07:51:34.975Z,9.50
2019-01-05T07:55:02.983Z,9.60
2019-01-05T07:58:55.798Z,9.80
2019-01-05T08:02:34.368Z,9.50
2019-01-05T08:06:13.583Z,9.50
2019-01-05T08:09:58.329Z,9.50
2019-01-05T08:14:02.520Z,9.50
2019-01-05T08:17:48.450Z,9.60
2019-01-05T08:21:06.633Z,9.70
2019-01-05T08:24:45.318Z,9.80
2019-01-05T08:28:10.648Z,9.80
2019-01-05T08:31:53.778Z,9.70
2019-01-05T08:35:34.643Z,9.60
2019-01-05T08:39:18.969Z,9.60
2019-01-05T08:43:08.728Z,9.60
2019-01-05T08:46:33.918Z,9.60
2019-01-05T08:50:02.639Z,9.50
2019-01-05T08:53:32.938Z,9.60
2019-01-05T08:57:15.719Z,9.70
2019-01-05T09:00:41.458Z,9.70
2019-01-05T09:04:19.964Z,9.70
2019-01-05T09:07:57.603Z,9.60
2019-01-05T09:11:21.909Z,9.50
2019-01-05T09:15:16.319Z,9.50
2019-01-05T09:18:41.098Z,9.70
2019-01-05T09:22:39.368Z,9.70
2019-01-05T09:26:12.336Z,9.80
2019-01-05T09:29:56.338Z,9.70
2019-01-05T09:33:32.395Z,9.80
2019-01-05T09:37:39.689Z,9.70
2019-01-05T09:41:12.909Z,9.70
2019-01-05T09:45:23.928Z,9.80
2019-01-05T09:48:40.783Z,9.80
2019-01-05T09:52:29.024Z,10.00
2019-01-05T09:56:10.428Z,10.20
2019-01-05T09:59:50.153Z,10.20
2019-01-05T10:03:17.979Z,10.10
2019-01-05T10:06:52.991Z,10.30
2019-01-05T10:10:34.427Z,10.10
2019-01-05T10:14:30.788Z,10.10
2019-01-05T10:18:02.048Z,10.20
2019-01-05T10:21:34.370Z,10.30
2019-01-05T10:25:11.419Z,10.20
2019-01-05T10:28:36.943Z,10.00
2019-01-05T10:32:18.733Z,10.20
2019-01-05T10:36:00.024Z,10.20
2019-01-05T10:39:24.049Z,10.20
2019-01-05T10:42:50.173Z,10.20
2019-01-05T10:46:17.809Z,10.10
2019-01-05T10:49:51.514Z,10.00
2019-01-05T10:53:34.861Z,10.00
2019-01-05T10:57:14.323Z,10.00
2019-01-05T11:00:34.875Z,10.00
2019-01-05T11:04:03.686Z,10.20
2019-01-05T11:07:23.498Z,10.20
2019-01-05T11:10:45.611Z,10.20
2019-01-05T11:14:27.914Z,10.40
2019-01-05T11:17:46.505Z,10.10
2019-01-05T11:21:25.209Z,10.20
2019-01-05T11:25:02.980Z,10.10
2019-01-05T11:28:40.175Z,10.20
2019-01-05T11:32:25.799Z,10.20
2019-01-05T11:35:50.854Z,10.20
2019-01-05T11:39:55.641Z,10.20
2019-01-05T11:43:19.504Z,10.10
2019-01-05T11:46:46.289Z,10.30
2019-01-05T11:50:36.688Z,10.20
2019-01-05T11:54:32.266Z,10.20
2019-01-05T11:58:13.129Z,10.20
2019-01-05T12:01:56.698Z,10.30
2019-01-05T12:05:41.957Z,10.20
2019-01-05T12:09:30.388Z,10.40
2019-01-05T12:13:12.824Z,10.30
2019-01-05T12:16:33.314Z,10.20
2019-01-05T12:20:16.083Z,10.20
2019-01-05T12:24:04.354Z,10.20
2019-01-05T12:27:40.514Z,10.10
2019-01-05T12:31:25.794Z,10.10
2019-01-05T12:35:04.494Z,10.00
2019-01-05T12:38:48.615Z,10.00
2019-01-05T12:42:30.784Z,9.90
2019-01-05T12:45:58.224Z,9.90
2019-01-05T12:49:44.853Z,9.90
2019-01-05T12:53:21.919Z,10.00
2019-01-05T12:56:51.661Z,10.00
2019-01-05T13:00:35.564Z,9.90
2019-01-05T13:04:08.759Z,10.10
2019-01-05T13:07:41.338Z,9.90
2019-01-05T13:11:22.758Z,9.70
2019-01-05T13:14:44.923Z,9.80
2019-01-05T13:18:26.639Z,9.80
2019-01-05T13:22:01.653Z,10.00
2019-01-05T13:25:51.327Z,9.70
2019-01-05T13:29:16.048Z,9.80
2019-01-05T13:32:43.124Z,9.80
2019-01-05T13:36:31.958Z,9.90
2019-01-05T13:39:56.343Z,9.70
2019-01-05T13:43:46.250Z,9.80
2019-01-05T13:47:19.984Z,9.80
2019-01-05T13:50:52.969Z,9.70
2019-01-05T13:54:30.055Z,9.70
2019-01-05T13:57:24.443Z,9.60
2019-01-05T14:00:14.339Z,9.60
2019-01-05T14:03:23.764Z,9.50
2019-01-05T14:06:27.458Z,9.50
2019-01-05T14:09:16.259Z,9.40
2019-01-05T14:12:07.325Z,9.30
2019-01-05T14:14:59.468Z,9.30
2019-01-05T14:18:08.418Z,9.20
2019-01-05T14:20:58.778Z,9.20
2019-01-05T14:23:48.418Z,9.20
2019-01-05T14:26:38.349Z,9.10
2019-01-05T14:29:29.304Z,9.00
2019-01-05T14:32:40.438Z,9.00
2019-01-05T14:35:43.609Z,8.90
2019-01-05T14:38:33.890Z,8.80
2019-01-05T14:41:25.648Z,8.80
2019-01-05T14:44:17.209Z,8.80
2019-01-05T14:47:29.914Z,8.80
2019-01-05T14:50:24.489Z,8.70
2019-01-05T14:53:21.309Z,8.70
2019-01-05T14:56:16.020Z,8.60
2019-01-05T14:59:06.108Z,8.70
2019-01-05T15:01:59.988Z,8.60
2019-01-05T15:05:06.314Z,8.50
2019-01-05T15:08:01.080Z,8.40
2019-01-05T15:10:50.739Z,8.40
2019-01-05T15:13:45.288Z,8.40
2019-01-05T15:16:36.549Z,8.30
2019-01-05T15:19:37.198Z,8.30
2019-01-05T15:22:41.025Z,8.40
2019-01-05T15:25:31.127Z,8.30
2019-01-05T15:28:27.983Z,8.30
2019-01-05T15:31:18.001Z,8.30
2019-01-05T15:34:15.397Z,8.40
2019-01-05T15:37:06.894Z,8.40
2019-01-05T15:40:00.864Z,8.40
2019-01-05T15:42:52.239Z,8.40
2019-01-05T15:45:52.843Z,8.40
2019-01-05T15:48:49.253Z,8.30
2019-01-05T15:51:48.153Z,8.40
2019-01-05T15:54:45.989Z,8.40
2019-01-05T15:57:35.554Z,8.50
2019-01-05T16:00:29.058Z,8.60
2019-01-05T16:03:20.999Z,8.60
2019-01-05T16:06:25.333Z,8.50
2019-01-05T16:09:16.224Z,8.40
2019-01-05T16:12:07.549Z,8.40
2019-01-05T16:15:01.618Z,8.40
2019-01-05T16:17:54.244Z,8.30
2019-01-05T16:20:49.294Z,8.20
2019-01-05T16:23:47.950Z,8.20
2019-01-05T16:26:58.887Z,8.20
2019-01-05T16:29:51.953Z,8.30
2019-01-05T16:32:57.854Z,8.30
2019-01-05T16:35:56.749Z,8.40
2019-01-05T16:38:47.016Z,8.40
2019-01-05T16:41:43.758Z,8.40
2019-01-05T16:44:37.814Z,8.30
2019-01-05T16:47:36.603Z,8.40
2019-01-05T16:50:38.343Z,8.40
2019-01-05T16:53:32.852Z,8.40
2019-01-05T16:56:33.261Z,8.40
2019-01-05T16:59:30.444Z,8.40
2019-01-05T17:02:24.379Z,8.30
2019-01-05T17:05:21.969Z,8.30
2019-01-05T17:08:15.979Z,8.20
2019-01-05T17:11:05.988Z,8.10
2019-01-05T17:13:56.203Z,8.10
2019-01-05T17:16:59.879Z,8.10
2019-01-05T17:20:00.835Z,8.20
2019-01-05T17:22:58.306Z,8.20
2019-01-05T17:25:52.599Z,8.10
2019-01-05T17:28:42.823Z,8.00
2019-01-05T17:31:46.379Z,8.00
2019-01-05T17:34:37.577Z,8.00
2019-01-05T17:37:39.657Z,8.00
2019-01-05T17:40:41.253Z,8.00
2019-01-05T17:43:42.418Z,7.90
2019-01-05T17:46:40.844Z,8.00
2019-01-05T17:49:29.155Z,8.00
2019-01-05T17:52:32.266Z,7.90
2019-01-05T17:55:42.353Z,7.90
2019-01-05T17:58:39.477Z,8.00
2019-01-05T18:01:31.201Z,7.90
2019-01-05T18:04:20.999Z,7.90
2019-01-05T18:07:10.504Z,7.90
2019-01-05T18:10:13.907Z,7.90
2019-01-05T18:13:05.050Z,7.90
2019-01-05T18:16:08.840Z,7.90
2019-01-05T18:19:18.975Z,7.80
2019-01-05T18:22:21.707Z,7.90
2019-01-05T18:25:13.905Z,7.80
2019-01-05T18:28:15.039Z,7.70
2019-01-05T18:31:08.813Z,7.70
2019-01-05T18:33:59.739Z,7.70
2019-01-05T18:36:49.753Z,7.70
2019-01-05T18:39:56.559Z,7.60
2019-01-05T18:42:52.565Z,7.60
2019-01-05T18:45:42.839Z,7.40
2019-01-05T18:48:32.500Z,7.40
2019-01-05T18:51:23.227Z,7.30
2019-01-05T18:54:17.651Z,7.30
2019-01-05T18:57:20.756Z,7.30
2019-01-05T19:00:10.760Z,7.20
2019-01-05T19:03:02.254Z,7.20
2019-01-05T19:05:52.485Z,7.20
2019-01-05T19:09:02.789Z,7.10
2019-01-05T19:12:08.389Z,7.10
2019-01-05T19:14:53.989Z,7.10
2019-01-05T19:17:51.365Z,7.10
2019-01-05T19:20:50.017Z,7.00
2019-01-05T19:23:45.796Z,7.00
2019-01-05T19:26:38.168Z,7.00
2019-01-05T19:29:27.613Z,7.00
2019-01-05T19:32:19.550Z,6.90
2019-01-05T19:35:22.369Z,6.90
2019-01-05T19:38:12.178Z,6.90
2019-01-05T19:41:02.607Z,6.70
2019-01-05T19:43:53.168Z,6.70
2019-01-05T19:46:44.454Z,6.70
2019-01-05T19:49:35.637Z,6.60
2019-01-05T19:52:25.613Z,6.60
2019-01-05T19:55:16.074Z,6.60
2019-01-05T19:58:06.319Z,6.60
2019-01-05T20:00:57.564Z,6.60
2019-01-05T20:03:47.263Z,6.60
2019-01-05T20:06:48.134Z,6.50
2019-01-05T20:09:45.868Z,6.60
2019-01-05T20:12:39.963Z,6.50
2019-01-05T20:15:38.638Z,6.50
2019-01-05T20:18:29.434Z,6.50
2019-01-05T20:21:26.309Z,6.50
2019-01-05T20:24:28.299Z,6.50
2019-01-05T20:27:28.269Z,6.40
2019-01-05T20:30:38.403Z,6.30
2019-01-05T20:33:38.723Z,6.30
2019-01-05T20:36:29.610Z,6.20
2019-01-05T20:39:19.423Z,6.10
2019-01-05T20:42:21.752Z,6.10
2019-01-05T20:45:10.875Z,6.20
2019-01-05T20:48:14.527Z,6.20
2019-01-05T20:51:23.583Z,6.20
2019-01-05T20:54:20.549Z,6.10
2019-01-05T20:57:20.998Z,6.10
2019-01-05T21:00:11.024Z,6.10
2019-01-05T21:03:14.398Z,6.10
2019-01-05T21:06:04.479Z,6.10
2019-01-05T21:09:10.783Z,6.10
2019-01-05T21:12:08.904Z,6.10
2019-01-05T21:15:02.853Z,6.10
2019-01-05T21:18:03.369Z,6.00
2019-01-05T21:21:06.209Z,5.90
2019-01-05T21:24:06.816Z,5.90
2019-01-05T21:27:05.595Z,5.90
2019-01-05T21:29:55.264Z,5.90
2019-01-05T21:32:49.169Z,5.90
2019-01-05T21:35:43.728Z,5.90
2019-01-05T21:38:43.079Z,6.00
2019-01-05T21:41:36.873Z,6.00
2019-01-05T21:44:44.648Z,6.00
2019-01-05T21:47:51.914Z,6.00
2019-01-05T21:50:59.427Z,5.90
2019-01-05T21:54:06.253Z,5.90
2019-01-05T21:56:56.054Z,5.90
2019-01-05T21:59:50.014Z,5.90
2019-01-05T22:02:39.989Z,6.00
2019-01-05T22:05:33.928Z,6.00
2019-01-05T22:08:24.684Z,6.00
2019-01-05T22:11:04.870Z,6.10
2019-01-05T22:13:50.293Z,6.10
2019-01-05T22:16:41.283Z,6.00
2019-01-05T22:19:38.308Z,5.90
2019-01-05T22:22:21.263Z,5.80
2019-01-05T22:25:15.088Z,5.80
2019-01-05T22:28:07.765Z,5.90
2019-01-05T22:30:57.203Z,5.90
2019-01-05T22:34:03.954Z,5.90
2019-01-05T22:36:54.888Z,6.00
2019-01-05T22:39:59.224Z,6.10
2019-01-05T22:42:52.649Z,6.10
2019-01-05T22:45:59.054Z,6.20
2019-01-05T22:49:02.924Z,6.30
2019-01-05T22:51:53.574Z,6.20
2019-01-05T22:54:44.934Z,6.30
2019-01-05T22:57:35.149Z,6.30
2019-01-05T23:00:28.444Z,6.30
2019-01-05T23:03:24.663Z,6.30
2019-01-05T23:06:16.613Z,6.20
2019-01-05T23:09:08.474Z,6.20
2019-01-05T23:12:09.664Z,6.20
2019-01-05T23:15:09.294Z,6.20
2019-01-05T23:17:59.783Z,6.20
2019-01-05T23:20:50.523Z,6.20
2019-01-05T23:23:42.393Z,6.20
2019-01-05T23:26:38.413Z,6.10
2019-01-05T23:29:32.633Z,6.20
2019-01-05T23:32:23.683Z,6.10
2019-01-05T23:35:34.054Z,6.10
2019-01-05T23:38:34.866Z,6.10
2019-01-05T23:41:43.064Z,6.10
2019-01-05T23:44:34.124Z,6.10
2019-01-05T23:47:46.474Z,6.10
2019-01-05T23:50:51.004Z,6.20
2019-01-05T23:53:41.603Z,6.20
2019-01-05T23:56:43.313Z,6.10
2019-01-05T23:59:40.299Z,6.10
